sensor_id;sensor_type;location;lat;lon;timestamp;temperature;humidity
16404;DHT22;8311;50.158;8.642;2023-02-04T00:00:25;20.50;47.50
16404;DHT22;8311;50.158;8.642;2023-02-04T00:03:21;20.50;47.50
16404;DHT22;8311;50.158;8.642;2023-02-04T00:06:14;20.50;47.50
16404;DHT22;8311;50.158;8.642;2023-02-04T00:09:08;20.50;47.50
16404;DHT22;8311;50.158;8.642;2023-02-04T00:12:01;20.50;47.50
16404;DHT22;8311;50.158;8.642;2023-02-04T00:14:54;20.50;47.50
16404;DHT22;8311;50.158;8.642;2023-02-04T00:17:47;20.50;47.50
16404;DHT22;8311;50.158;8.642;2023-02-04T00:20:41;20.50;47.50
16404;DHT22;8311;50.158;8.642;2023-02-04T00:23:34;20.50;47.50
16404;DHT22;8311;50.158;8.642;2023-02-04T00:26:27;20.50;47.50
16404;DHT22;8311;50.158;8.642;2023-02-04T00:29:20;20.50;47.50
16404;DHT22;8311;50.158;8.642;2023-02-04T00:32:13;20.50;47.50
16404;DHT22;8311;50.158;8.642;2023-02-04T00:35:06;20.50;47.50
16404;DHT22;8311;50.158;8.642;2023-02-04T00:38:01;20.50;47.40
16404;DHT22;8311;50.158;8.642;2023-02-04T00:40:55;20.50;47.70
16404;DHT22;8311;50.158;8.642;2023-02-04T00:43:49;20.50;47.70
16404;DHT22;8311;50.158;8.642;2023-02-04T00:46:42;20.50;47.70
16404;DHT22;8311;50.158;8.642;2023-02-04T00:49:35;20.50;47.40
16404;DHT22;8311;50.158;8.642;2023-02-04T00:52:28;20.50;48.30
16404;DHT22;8311;50.158;8.642;2023-02-04T00:55:23;20.50;47.60
16404;DHT22;8311;50.158;8.642;2023-02-04T00:58:17;20.50;47.60
16404;DHT22;8311;50.158;8.642;2023-02-04T01:01:10;20.40;47.50
16404;DHT22;8311;50.158;8.642;2023-02-04T01:04:03;20.40;47.40
16404;DHT22;8311;50.158;8.642;2023-02-04T01:06:57;20.40;47.20
16404;DHT22;8311;50.158;8.642;2023-02-04T01:09:50;20.40;47.10
16404;DHT22;8311;50.158;8.642;2023-02-04T01:12:44;20.40;47.00
16404;DHT22;8311;50.158;8.642;2023-02-04T01:15:38;20.30;46.70
16404;DHT22;8311;50.158;8.642;2023-02-04T01:18:31;20.30;46.50
16404;DHT22;8311;50.158;8.642;2023-02-04T01:21:24;20.30;46.40
16404;DHT22;8311;50.158;8.642;2023-02-04T01:24:17;20.30;46.20
16404;DHT22;8311;50.158;8.642;2023-02-04T01:27:10;20.30;46.20
16404;DHT22;8311;50.158;8.642;2023-02-04T01:30:05;20.30;46.00
16404;DHT22;8311;50.158;8.642;2023-02-04T01:32:58;20.30;45.90
16404;DHT22;8311;50.158;8.642;2023-02-04T01:35:51;20.20;45.80
16404;DHT22;8311;50.158;8.642;2023-02-04T01:38:45;20.30;45.70
16404;DHT22;8311;50.158;8.642;2023-02-04T01:41:38;20.30;45.50
16404;DHT22;8311;50.158;8.642;2023-02-04T01:44:31;20.20;45.40
16404;DHT22;8311;50.158;8.642;2023-02-04T01:47:25;20.20;45.30
16404;DHT22;8311;50.158;8.642;2023-02-04T01:50:18;20.20;45.30
16404;DHT22;8311;50.158;8.642;2023-02-04T01:53:11;20.20;45.10
16404;DHT22;8311;50.158;8.642;2023-02-04T01:56:14;20.20;45.00
16404;DHT22;8311;50.158;8.642;2023-02-04T01:59:11;20.20;44.90
16404;DHT22;8311;50.158;8.642;2023-02-04T02:02:38;20.20;44.90
16404;DHT22;8311;50.158;8.642;2023-02-04T02:05:37;20.20;44.80
16404;DHT22;8311;50.158;8.642;2023-02-04T02:08:31;20.20;44.70
16404;DHT22;8311;50.158;8.642;2023-02-04T02:11:24;20.10;44.60
16404;DHT22;8311;50.158;8.642;2023-02-04T02:14:18;20.20;44.70
16404;DHT22;8311;50.158;8.642;2023-02-04T02:17:12;20.20;44.50
16404;DHT22;8311;50.158;8.642;2023-02-04T02:20:07;20.20;44.50
16404;DHT22;8311;50.158;8.642;2023-02-04T02:23:04;20.10;44.40
16404;DHT22;8311;50.158;8.642;2023-02-04T02:25:59;20.10;44.30
16404;DHT22;8311;50.158;8.642;2023-02-04T02:28:52;20.10;44.20
16404;DHT22;8311;50.158;8.642;2023-02-04T02:31:46;20.10;44.10
16404;DHT22;8311;50.158;8.642;2023-02-04T02:34:40;20.10;44.10
16404;DHT22;8311;50.158;8.642;2023-02-04T02:37:34;20.10;44.10
16404;DHT22;8311;50.158;8.642;2023-02-04T02:40:28;20.10;44.10
16404;DHT22;8311;50.158;8.642;2023-02-04T02:43:26;20.10;44.00
16404;DHT22;8311;50.158;8.642;2023-02-04T02:46:19;20.10;44.00
16404;DHT22;8311;50.158;8.642;2023-02-04T02:49:14;20.10;43.90
16404;DHT22;8311;50.158;8.642;2023-02-04T02:52:10;20.10;43.90
16404;DHT22;8311;50.158;8.642;2023-02-04T02:55:03;20.10;44.00
16404;DHT22;8311;50.158;8.642;2023-02-04T02:57:57;20.10;44.00
16404;DHT22;8311;50.158;8.642;2023-02-04T03:00:51;20.10;44.00
16404;DHT22;8311;50.158;8.642;2023-02-04T03:03:48;20.10;43.90
16404;DHT22;8311;50.158;8.642;2023-02-04T03:06:42;20.10;43.80
16404;DHT22;8311;50.158;8.642;2023-02-04T03:09:35;20.10;43.70
16404;DHT22;8311;50.158;8.642;2023-02-04T03:12:28;20.10;43.70
16404;DHT22;8311;50.158;8.642;2023-02-04T03:15:21;20.10;43.70
16404;DHT22;8311;50.158;8.642;2023-02-04T03:18:17;20.10;43.60
16404;DHT22;8311;50.158;8.642;2023-02-04T03:21:11;20.00;43.50
16404;DHT22;8311;50.158;8.642;2023-02-04T03:24:04;20.10;43.50
16404;DHT22;8311;50.158;8.642;2023-02-04T03:26:59;20.00;43.50
16404;DHT22;8311;50.158;8.642;2023-02-04T03:29:52;20.00;43.50
16404;DHT22;8311;50.158;8.642;2023-02-04T03:32:45;20.00;43.40
16404;DHT22;8311;50.158;8.642;2023-02-04T03:35:39;20.00;43.30
16404;DHT22;8311;50.158;8.642;2023-02-04T03:38:32;20.00;43.40
16404;DHT22;8311;50.158;8.642;2023-02-04T03:41:25;20.00;43.30
16404;DHT22;8311;50.158;8.642;2023-02-04T03:44:18;20.00;43.30
16404;DHT22;8311;50.158;8.642;2023-02-04T03:47:12;20.00;43.20
16404;DHT22;8311;50.158;8.642;2023-02-04T03:50:05;20.00;43.20
16404;DHT22;8311;50.158;8.642;2023-02-04T03:52:59;20.00;43.30
16404;DHT22;8311;50.158;8.642;2023-02-04T03:55:53;20.00;43.20
16404;DHT22;8311;50.158;8.642;2023-02-04T03:58:46;19.90;43.20
16404;DHT22;8311;50.158;8.642;2023-02-04T04:01:39;20.00;43.10
16404;DHT22;8311;50.158;8.642;2023-02-04T04:04:33;19.90;43.20
16404;DHT22;8311;50.158;8.642;2023-02-04T04:07:26;19.90;43.10
16404;DHT22;8311;50.158;8.642;2023-02-04T04:10:21;19.90;43.10
16404;DHT22;8311;50.158;8.642;2023-02-04T04:13:14;19.90;43.00
16404;DHT22;8311;50.158;8.642;2023-02-04T04:16:07;19.90;43.10
16404;DHT22;8311;50.158;8.642;2023-02-04T04:19:00;19.90;43.10
16404;DHT22;8311;50.158;8.642;2023-02-04T04:21:54;19.90;43.10
16404;DHT22;8311;50.158;8.642;2023-02-04T04:24:47;19.90;43.20
16404;DHT22;8311;50.158;8.642;2023-02-04T04:27:41;19.90;43.10
16404;DHT22;8311;50.158;8.642;2023-02-04T04:30:35;19.90;43.20
16404;DHT22;8311;50.158;8.642;2023-02-04T04:33:28;19.90;43.20
16404;DHT22;8311;50.158;8.642;2023-02-04T04:36:21;19.90;43.00
16404;DHT22;8311;50.158;8.642;2023-02-04T04:39:16;19.90;43.00
16404;DHT22;8311;50.158;8.642;2023-02-04T04:42:09;19.90;43.00
16404;DHT22;8311;50.158;8.642;2023-02-04T04:45:06;19.90;42.90
16404;DHT22;8311;50.158;8.642;2023-02-04T04:48:00;19.90;43.00
16404;DHT22;8311;50.158;8.642;2023-02-04T04:50:53;19.90;42.90
16404;DHT22;8311;50.158;8.642;2023-02-04T04:53:46;19.90;42.90
16404;DHT22;8311;50.158;8.642;2023-02-04T04:56:39;19.90;42.90
16404;DHT22;8311;50.158;8.642;2023-02-04T04:59:32;19.80;42.80
16404;DHT22;8311;50.158;8.642;2023-02-04T05:02:27;19.80;42.80
16404;DHT22;8311;50.158;8.642;2023-02-04T05:05:20;19.80;42.80
16404;DHT22;8311;50.158;8.642;2023-02-04T05:08:14;19.80;42.80
16404;DHT22;8311;50.158;8.642;2023-02-04T05:11:07;19.80;42.70
16404;DHT22;8311;50.158;8.642;2023-02-04T05:14:00;19.80;42.70
16404;DHT22;8311;50.158;8.642;2023-02-04T05:16:53;19.80;42.70
16404;DHT22;8311;50.158;8.642;2023-02-04T05:19:47;19.80;42.70
16404;DHT22;8311;50.158;8.642;2023-02-04T05:22:40;19.80;42.70
16404;DHT22;8311;50.158;8.642;2023-02-04T05:25:33;19.80;42.80
16404;DHT22;8311;50.158;8.642;2023-02-04T05:28:27;19.80;42.80
16404;DHT22;8311;50.158;8.642;2023-02-04T05:31:20;19.80;42.80
16404;DHT22;8311;50.158;8.642;2023-02-04T05:34:13;19.80;42.90
16404;DHT22;8311;50.158;8.642;2023-02-04T05:37:07;19.80;42.90
16404;DHT22;8311;50.158;8.642;2023-02-04T05:40:01;19.80;43.00
16404;DHT22;8311;50.158;8.642;2023-02-04T05:42:54;19.80;43.00
16404;DHT22;8311;50.158;8.642;2023-02-04T05:45:47;19.80;43.00
16404;DHT22;8311;50.158;8.642;2023-02-04T05:48:40;19.70;42.90
16404;DHT22;8311;50.158;8.642;2023-02-04T05:51:33;19.70;42.90
16404;DHT22;8311;50.158;8.642;2023-02-04T05:54:28;19.70;43.60
16404;DHT22;8311;50.158;8.642;2023-02-04T05:57:21;19.70;43.50
16404;DHT22;8311;50.158;8.642;2023-02-04T06:00:14;19.70;42.90
16404;DHT22;8311;50.158;8.642;2023-02-04T06:03:07;19.70;42.90
16404;DHT22;8311;50.158;8.642;2023-02-04T06:06:00;19.70;42.90
16404;DHT22;8311;50.158;8.642;2023-02-04T06:08:53;19.70;42.90
16404;DHT22;8311;50.158;8.642;2023-02-04T06:11:48;19.70;42.80
16404;DHT22;8311;50.158;8.642;2023-02-04T06:14:41;19.70;42.90
16404;DHT22;8311;50.158;8.642;2023-02-04T06:17:34;19.70;42.90
16404;DHT22;8311;50.158;8.642;2023-02-04T06:20:27;19.70;42.90
16404;DHT22;8311;50.158;8.642;2023-02-04T06:23:21;19.70;43.00
16404;DHT22;8311;50.158;8.642;2023-02-04T06:26:14;19.70;43.00
16404;DHT22;8311;50.158;8.642;2023-02-04T06:29:09;19.70;43.60
16404;DHT22;8311;50.158;8.642;2023-02-04T06:32:02;19.70;43.00
16404;DHT22;8311;50.158;8.642;2023-02-04T06:34:55;19.60;43.00
16404;DHT22;8311;50.158;8.642;2023-02-04T06:37:48;19.70;43.00
16404;DHT22;8311;50.158;8.642;2023-02-04T06:40:41;19.70;43.00
16404;DHT22;8311;50.158;8.642;2023-02-04T06:43:34;19.70;43.10
16404;DHT22;8311;50.158;8.642;2023-02-04T06:46:28;19.70;43.00
16404;DHT22;8311;50.158;8.642;2023-02-04T06:49:22;19.70;43.10
16404;DHT22;8311;50.158;8.642;2023-02-04T06:52:15;19.60;43.10
16404;DHT22;8311;50.158;8.642;2023-02-04T06:55:08;19.70;43.10
16404;DHT22;8311;50.158;8.642;2023-02-04T06:58:01;19.60;43.00
16404;DHT22;8311;50.158;8.642;2023-02-04T07:00:54;19.60;43.10
16404;DHT22;8311;50.158;8.642;2023-02-04T07:03:48;19.60;43.10
16404;DHT22;8311;50.158;8.642;2023-02-04T07:06:41;19.60;43.10
16404;DHT22;8311;50.158;8.642;2023-02-04T07:09:34;19.60;43.80
16404;DHT22;8311;50.158;8.642;2023-02-04T07:12:28;19.60;43.10
16404;DHT22;8311;50.158;8.642;2023-02-04T07:15:21;19.60;43.10
16404;DHT22;8311;50.158;8.642;2023-02-04T07:18:14;19.60;43.20
16404;DHT22;8311;50.158;8.642;2023-02-04T07:21:09;19.60;43.10
16404;DHT22;8311;50.158;8.642;2023-02-04T07:24:02;19.60;43.10
16404;DHT22;8311;50.158;8.642;2023-02-04T07:26:55;19.60;43.10
16404;DHT22;8311;50.158;8.642;2023-02-04T07:29:48;19.60;43.20
16404;DHT22;8311;50.158;8.642;2023-02-04T07:32:41;19.60;43.20
16404;DHT22;8311;50.158;8.642;2023-02-04T07:35:34;19.60;43.20
16404;DHT22;8311;50.158;8.642;2023-02-04T07:38:30;19.50;43.20
16404;DHT22;8311;50.158;8.642;2023-02-04T07:41:23;19.60;43.60
16404;DHT22;8311;50.158;8.642;2023-02-04T07:44:17;19.60;43.20
16404;DHT22;8311;50.158;8.642;2023-02-04T07:47:10;19.60;43.20
16404;DHT22;8311;50.158;8.642;2023-02-04T07:50:04;19.50;43.30
16404;DHT22;8311;50.158;8.642;2023-02-04T07:52:57;19.50;43.30
16404;DHT22;8311;50.158;8.642;2023-02-04T07:55:51;19.60;43.60
16404;DHT22;8311;50.158;8.642;2023-02-04T07:58:44;19.60;44.10
16404;DHT22;8311;50.158;8.642;2023-02-04T08:01:37;19.60;44.20
16404;DHT22;8311;50.158;8.642;2023-02-04T08:04:30;19.60;45.00
16404;DHT22;8311;50.158;8.642;2023-02-04T08:07:23;19.70;44.50
16404;DHT22;8311;50.158;8.642;2023-02-04T08:10:16;19.70;44.30
16404;DHT22;8311;50.158;8.642;2023-02-04T08:13:12;19.70;44.20
16404;DHT22;8311;50.158;8.642;2023-02-04T08:16:05;19.70;44.20
16404;DHT22;8311;50.158;8.642;2023-02-04T08:18:59;19.70;44.20
16404;DHT22;8311;50.158;8.642;2023-02-04T08:21:52;19.70;44.20
16404;DHT22;8311;50.158;8.642;2023-02-04T08:24:45;19.70;44.20
16404;DHT22;8311;50.158;8.642;2023-02-04T08:27:38;19.70;44.20
16404;DHT22;8311;50.158;8.642;2023-02-04T08:30:33;19.70;44.20
16404;DHT22;8311;50.158;8.642;2023-02-04T08:33:26;19.60;44.20
16404;DHT22;8311;50.158;8.642;2023-02-04T08:36:19;19.70;44.30
16404;DHT22;8311;50.158;8.642;2023-02-04T08:39:12;19.70;44.30
16404;DHT22;8311;50.158;8.642;2023-02-04T08:42:05;19.70;44.30
16404;DHT22;8311;50.158;8.642;2023-02-04T08:44:58;19.60;44.30
16404;DHT22;8311;50.158;8.642;2023-02-04T08:47:53;19.70;44.30
16404;DHT22;8311;50.158;8.642;2023-02-04T08:50:46;19.70;44.30
16404;DHT22;8311;50.158;8.642;2023-02-04T08:53:39;19.70;44.40
16404;DHT22;8311;50.158;8.642;2023-02-04T08:56:32;19.70;44.40
16404;DHT22;8311;50.158;8.642;2023-02-04T08:59:29;19.70;44.40
16404;DHT22;8311;50.158;8.642;2023-02-04T09:02:22;19.70;44.40
16404;DHT22;8311;50.158;8.642;2023-02-04T09:05:16;19.70;44.40
16404;DHT22;8311;50.158;8.642;2023-02-04T09:08:09;19.70;44.40
16404;DHT22;8311;50.158;8.642;2023-02-04T09:11:03;19.70;44.40
16404;DHT22;8311;50.158;8.642;2023-02-04T09:13:56;19.70;44.40
16404;DHT22;8311;50.158;8.642;2023-02-04T09:16:49;19.70;44.40
16404;DHT22;8311;50.158;8.642;2023-02-04T09:19:42;19.70;44.40
16404;DHT22;8311;50.158;8.642;2023-02-04T09:22:37;19.80;44.50
16404;DHT22;8311;50.158;8.642;2023-02-04T09:25:30;19.80;44.50
16404;DHT22;8311;50.158;8.642;2023-02-04T09:28:23;19.80;44.40
16404;DHT22;8311;50.158;8.642;2023-02-04T09:31:16;19.80;44.50
16404;DHT22;8311;50.158;8.642;2023-02-04T09:34:09;19.80;44.70
16404;DHT22;8311;50.158;8.642;2023-02-04T09:37:02;19.90;44.80
16404;DHT22;8311;50.158;8.642;2023-02-04T09:39:57;19.90;44.80
16404;DHT22;8311;50.158;8.642;2023-02-04T09:42:51;19.80;44.80
16404;DHT22;8311;50.158;8.642;2023-02-04T09:45:45;19.90;44.90
16404;DHT22;8311;50.158;8.642;2023-02-04T09:48:40;19.80;45.00
16404;DHT22;8311;50.158;8.642;2023-02-04T09:51:35;19.90;45.00
16404;DHT22;8311;50.158;8.642;2023-02-04T09:54:28;19.90;45.00
16404;DHT22;8311;50.158;8.642;2023-02-04T09:57:23;19.90;45.00
16404;DHT22;8311;50.158;8.642;2023-02-04T10:00:19;19.90;45.00
16404;DHT22;8311;50.158;8.642;2023-02-04T10:03:15;19.90;45.00
16404;DHT22;8311;50.158;8.642;2023-02-04T10:06:08;19.90;44.90
16404;DHT22;8311;50.158;8.642;2023-02-04T10:09:02;19.90;45.00
16404;DHT22;8311;50.158;8.642;2023-02-04T10:11:55;19.90;44.90
16404;DHT22;8311;50.158;8.642;2023-02-04T10:14:50;19.90;44.90
16404;DHT22;8311;50.158;8.642;2023-02-04T10:17:43;19.90;45.00
16404;DHT22;8311;50.158;8.642;2023-02-04T10:20:36;19.90;45.00
16404;DHT22;8311;50.158;8.642;2023-02-04T10:23:29;20.00;45.20
16404;DHT22;8311;50.158;8.642;2023-02-04T10:26:25;20.00;45.10
16404;DHT22;8311;50.158;8.642;2023-02-04T10:29:21;20.00;45.10
16404;DHT22;8311;50.158;8.642;2023-02-04T10:32:29;20.00;45.20
16404;DHT22;8311;50.158;8.642;2023-02-04T10:35:22;20.00;45.10
16404;DHT22;8311;50.158;8.642;2023-02-04T10:38:15;20.00;45.30
16404;DHT22;8311;50.158;8.642;2023-02-04T10:41:12;20.00;45.20
16404;DHT22;8311;50.158;8.642;2023-02-04T10:44:08;20.00;45.20
16404;DHT22;8311;50.158;8.642;2023-02-04T10:47:04;20.00;45.20
16404;DHT22;8311;50.158;8.642;2023-02-04T10:50:01;20.10;45.30
16404;DHT22;8311;50.158;8.642;2023-02-04T10:52:56;20.10;45.30
16404;DHT22;8311;50.158;8.642;2023-02-04T10:56:16;20.10;45.30
16404;DHT22;8311;50.158;8.642;2023-02-04T10:59:20;20.10;45.30
16404;DHT22;8311;50.158;8.642;2023-02-04T11:02:35;20.10;45.30
16404;DHT22;8311;50.158;8.642;2023-02-04T11:05:31;20.10;45.30
16404;DHT22;8311;50.158;8.642;2023-02-04T11:08:26;20.10;45.30
16404;DHT22;8311;50.158;8.642;2023-02-04T11:11:23;20.20;45.30
16404;DHT22;8311;50.158;8.642;2023-02-04T11:14:22;20.20;45.30
16404;DHT22;8311;50.158;8.642;2023-02-04T11:17:19;20.20;45.30
16404;DHT22;8311;50.158;8.642;2023-02-04T11:20:14;20.20;45.30
16404;DHT22;8311;50.158;8.642;2023-02-04T11:23:33;20.10;45.30
16404;DHT22;8311;50.158;8.642;2023-02-04T11:26:32;20.20;45.40
16404;DHT22;8311;50.158;8.642;2023-02-04T11:29:28;20.20;45.40
16404;DHT22;8311;50.158;8.642;2023-02-04T11:32:31;20.20;45.30
16404;DHT22;8311;50.158;8.642;2023-02-04T11:35:27;20.30;45.70
16404;DHT22;8311;50.158;8.642;2023-02-04T11:38:26;20.40;45.60
16404;DHT22;8311;50.158;8.642;2023-02-04T11:41:24;20.50;45.60
16404;DHT22;8311;50.158;8.642;2023-02-04T11:44:19;20.40;45.60
16404;DHT22;8311;50.158;8.642;2023-02-04T11:47:15;20.50;45.60
16404;DHT22;8311;50.158;8.642;2023-02-04T11:50:14;20.60;45.60
16404;DHT22;8311;50.158;8.642;2023-02-04T11:53:10;20.60;45.60
16404;DHT22;8311;50.158;8.642;2023-02-04T11:56:05;20.60;45.50
16404;DHT22;8311;50.158;8.642;2023-02-04T11:58:58;20.60;45.50
16404;DHT22;8311;50.158;8.642;2023-02-04T12:02:03;20.60;45.40
16404;DHT22;8311;50.158;8.642;2023-02-04T12:05:12;20.60;45.40
16404;DHT22;8311;50.158;8.642;2023-02-04T12:08:10;20.60;45.30
16404;DHT22;8311;50.158;8.642;2023-02-04T12:11:10;20.60;45.40
16404;DHT22;8311;50.158;8.642;2023-02-04T12:14:09;20.60;46.00
16404;DHT22;8311;50.158;8.642;2023-02-04T12:17:14;20.60;45.40
16404;DHT22;8311;50.158;8.642;2023-02-04T12:20:10;20.60;45.40
16404;DHT22;8311;50.158;8.642;2023-02-04T12:23:04;20.60;45.40
16404;DHT22;8311;50.158;8.642;2023-02-04T12:25:56;20.60;45.50
16404;DHT22;8311;50.158;8.642;2023-02-04T12:28:51;20.70;45.60
16404;DHT22;8311;50.158;8.642;2023-02-04T12:31:43;20.80;45.60
16404;DHT22;8311;50.158;8.642;2023-02-04T12:34:36;20.80;45.50
16404;DHT22;8311;50.158;8.642;2023-02-04T12:37:29;20.80;45.50
16404;DHT22;8311;50.158;8.642;2023-02-04T12:40:23;20.80;45.50
16404;DHT22;8311;50.158;8.642;2023-02-04T12:43:15;20.80;45.60
16404;DHT22;8311;50.158;8.642;2023-02-04T12:46:10;20.80;45.50
16404;DHT22;8311;50.158;8.642;2023-02-04T12:49:04;20.90;45.60
16404;DHT22;8311;50.158;8.642;2023-02-04T12:52:00;20.90;45.60
16404;DHT22;8311;50.158;8.642;2023-02-04T12:54:54;21.00;45.60
16404;DHT22;8311;50.158;8.642;2023-02-04T12:57:47;21.00;45.60
16404;DHT22;8311;50.158;8.642;2023-02-04T13:00:39;21.00;45.60
16404;DHT22;8311;50.158;8.642;2023-02-04T13:03:35;21.00;45.60
16404;DHT22;8311;50.158;8.642;2023-02-04T13:06:28;21.00;45.60
16404;DHT22;8311;50.158;8.642;2023-02-04T13:09:20;21.00;45.60
16404;DHT22;8311;50.158;8.642;2023-02-04T13:12:14;21.10;45.60
16404;DHT22;8311;50.158;8.642;2023-02-04T13:15:08;21.00;45.50
16404;DHT22;8311;50.158;8.642;2023-02-04T13:18:01;21.00;45.50
16404;DHT22;8311;50.158;8.642;2023-02-04T13:20:56;21.00;45.40
16404;DHT22;8311;50.158;8.642;2023-02-04T13:23:49;21.00;45.40
16404;DHT22;8311;50.158;8.642;2023-02-04T13:26:43;21.00;45.40
16404;DHT22;8311;50.158;8.642;2023-02-04T13:29:36;21.00;45.50
16404;DHT22;8311;50.158;8.642;2023-02-04T13:32:30;21.00;45.40
16404;DHT22;8311;50.158;8.642;2023-02-04T13:35:22;21.00;45.40
16404;DHT22;8311;50.158;8.642;2023-02-04T13:38:17;21.00;45.50
16404;DHT22;8311;50.158;8.642;2023-02-04T13:41:10;21.00;45.50
16404;DHT22;8311;50.158;8.642;2023-02-04T13:44:04;21.00;45.50
16404;DHT22;8311;50.158;8.642;2023-02-04T13:46:57;21.00;45.50
16404;DHT22;8311;50.158;8.642;2023-02-04T13:49:51;20.90;45.50
16404;DHT22;8311;50.158;8.642;2023-02-04T13:52:43;20.90;45.50
16404;DHT22;8311;50.158;8.642;2023-02-04T13:55:38;20.90;45.50
16404;DHT22;8311;50.158;8.642;2023-02-04T13:58:31;20.90;45.50
16404;DHT22;8311;50.158;8.642;2023-02-04T14:01:23;20.90;45.50
16404;DHT22;8311;50.158;8.642;2023-02-04T14:04:16;20.90;45.60
16404;DHT22;8311;50.158;8.642;2023-02-04T14:07:10;20.90;45.60
16404;DHT22;8311;50.158;8.642;2023-02-04T14:10:04;20.80;45.60
16404;DHT22;8311;50.158;8.642;2023-02-04T14:12:58;20.80;45.60
16404;DHT22;8311;50.158;8.642;2023-02-04T14:15:51;20.80;45.60
16404;DHT22;8311;50.158;8.642;2023-02-04T14:18:45;20.80;45.60
16404;DHT22;8311;50.158;8.642;2023-02-04T14:21:38;20.80;45.60
16404;DHT22;8311;50.158;8.642;2023-02-04T14:24:30;20.80;45.10
16404;DHT22;8311;50.158;8.642;2023-02-04T14:27:24;20.70;44.00
16404;DHT22;8311;50.158;8.642;2023-02-04T14:30:21;20.70;44.10
16404;DHT22;8311;50.158;8.642;2023-02-04T14:33:15;20.70;44.10
16404;DHT22;8311;50.158;8.642;2023-02-04T14:36:08;20.70;44.30
16404;DHT22;8311;50.158;8.642;2023-02-04T14:39:02;20.70;44.40
16404;DHT22;8311;50.158;8.642;2023-02-04T14:41:55;20.70;44.50
16404;DHT22;8311;50.158;8.642;2023-02-04T14:44:49;20.60;44.50
16404;DHT22;8311;50.158;8.642;2023-02-04T14:47:43;20.60;44.50
16404;DHT22;8311;50.158;8.642;2023-02-04T14:50:35;20.60;44.60
16404;DHT22;8311;50.158;8.642;2023-02-04T14:53:29;20.60;44.80
16404;DHT22;8311;50.158;8.642;2023-02-04T14:56:22;20.60;44.80
16404;DHT22;8311;50.158;8.642;2023-02-04T14:59:15;20.60;44.90
16404;DHT22;8311;50.158;8.642;2023-02-04T15:02:09;20.60;44.90
16404;DHT22;8311;50.158;8.642;2023-02-04T15:05:04;20.60;45.00
16404;DHT22;8311;50.158;8.642;2023-02-04T15:07:58;20.60;45.00
16404;DHT22;8311;50.158;8.642;2023-02-04T15:10:51;20.60;45.10
16404;DHT22;8311;50.158;8.642;2023-02-04T15:13:45;20.60;45.00
16404;DHT22;8311;50.158;8.642;2023-02-04T15:16:37;20.50;45.00
16404;DHT22;8311;50.158;8.642;2023-02-04T15:19:33;20.50;45.10
16404;DHT22;8311;50.158;8.642;2023-02-04T15:22:27;20.50;45.10
16404;DHT22;8311;50.158;8.642;2023-02-04T15:25:21;20.50;45.10
16404;DHT22;8311;50.158;8.642;2023-02-04T15:28:14;20.50;45.20
16404;DHT22;8311;50.158;8.642;2023-02-04T15:31:07;20.50;45.20
16404;DHT22;8311;50.158;8.642;2023-02-04T15:34:03;20.50;45.30
16404;DHT22;8311;50.158;8.642;2023-02-04T15:36:57;20.50;45.30
16404;DHT22;8311;50.158;8.642;2023-02-04T15:39:51;20.50;45.30
16404;DHT22;8311;50.158;8.642;2023-02-04T15:42:48;20.40;45.30
16404;DHT22;8311;50.158;8.642;2023-02-04T15:45:42;20.50;45.40
16404;DHT22;8311;50.158;8.642;2023-02-04T15:48:35;20.40;45.40
16404;DHT22;8311;50.158;8.642;2023-02-04T15:51:28;20.40;45.40
16404;DHT22;8311;50.158;8.642;2023-02-04T15:54:21;20.40;45.40
16404;DHT22;8311;50.158;8.642;2023-02-04T15:57:15;20.40;45.40
16404;DHT22;8311;50.158;8.642;2023-02-04T16:00:09;20.40;45.40
16404;DHT22;8311;50.158;8.642;2023-02-04T16:03:02;20.40;45.50
16404;DHT22;8311;50.158;8.642;2023-02-04T16:05:55;20.40;45.50
16404;DHT22;8311;50.158;8.642;2023-02-04T16:08:47;20.40;45.50
16404;DHT22;8311;50.158;8.642;2023-02-04T16:11:41;20.40;45.50
16404;DHT22;8311;50.158;8.642;2023-02-04T16:14:35;20.30;45.40
16404;DHT22;8311;50.158;8.642;2023-02-04T16:17:29;20.40;45.50
16404;DHT22;8311;50.158;8.642;2023-02-04T16:20:23;20.40;45.60
16404;DHT22;8311;50.158;8.642;2023-02-04T16:23:16;20.30;45.50
16404;DHT22;8311;50.158;8.642;2023-02-04T16:26:09;20.30;45.50
16404;DHT22;8311;50.158;8.642;2023-02-04T16:29:02;20.30;45.50
16404;DHT22;8311;50.158;8.642;2023-02-04T16:31:57;20.30;45.50
16404;DHT22;8311;50.158;8.642;2023-02-04T16:34:51;20.30;45.50
16404;DHT22;8311;50.158;8.642;2023-02-04T16:37:44;20.30;45.60
16404;DHT22;8311;50.158;8.642;2023-02-04T16:40:37;20.30;45.60
16404;DHT22;8311;50.158;8.642;2023-02-04T16:43:30;20.30;45.60
16404;DHT22;8311;50.158;8.642;2023-02-04T16:46:23;20.30;45.60
16404;DHT22;8311;50.158;8.642;2023-02-04T16:49:17;20.30;45.60
16404;DHT22;8311;50.158;8.642;2023-02-04T16:52:11;20.30;45.60
16404;DHT22;8311;50.158;8.642;2023-02-04T16:55:04;20.30;45.60
16404;DHT22;8311;50.158;8.642;2023-02-04T16:57:58;20.30;45.70
16404;DHT22;8311;50.158;8.642;2023-02-04T17:00:51;20.30;45.60
16404;DHT22;8311;50.158;8.642;2023-02-04T17:03:45;20.30;45.70
16404;DHT22;8311;50.158;8.642;2023-02-04T17:06:39;20.30;46.30
16404;DHT22;8311;50.158;8.642;2023-02-04T17:09:33;20.30;45.70
16404;DHT22;8311;50.158;8.642;2023-02-04T17:12:27;20.20;45.70
16404;DHT22;8311;50.158;8.642;2023-02-04T17:15:19;20.20;45.70
16404;DHT22;8311;50.158;8.642;2023-02-04T17:18:12;20.30;45.80
16404;DHT22;8311;50.158;8.642;2023-02-04T17:21:06;20.20;45.70
16404;DHT22;8311;50.158;8.642;2023-02-04T17:24:00;20.20;45.70
16404;DHT22;8311;50.158;8.642;2023-02-04T17:26:56;20.20;45.70
16404;DHT22;8311;50.158;8.642;2023-02-04T17:29:51;20.20;45.70
16404;DHT22;8311;50.158;8.642;2023-02-04T17:32:43;20.20;45.70
16404;DHT22;8311;50.158;8.642;2023-02-04T17:35:37;20.20;45.70
16404;DHT22;8311;50.158;8.642;2023-02-04T17:38:30;20.20;45.70
16404;DHT22;8311;50.158;8.642;2023-02-04T17:41:24;20.20;45.70
16404;DHT22;8311;50.158;8.642;2023-02-04T17:44:17;20.20;45.70
16404;DHT22;8311;50.158;8.642;2023-02-04T17:47:15;20.20;45.70
16404;DHT22;8311;50.158;8.642;2023-02-04T17:50:10;20.20;45.70
16404;DHT22;8311;50.158;8.642;2023-02-04T17:53:03;20.20;45.80
16404;DHT22;8311;50.158;8.642;2023-02-04T17:55:56;20.20;45.80
16404;DHT22;8311;50.158;8.642;2023-02-04T17:58:50;20.20;45.80
16404;DHT22;8311;50.158;8.642;2023-02-04T18:01:44;20.20;45.80
16404;DHT22;8311;50.158;8.642;2023-02-04T18:04:38;20.20;45.80
16404;DHT22;8311;50.158;8.642;2023-02-04T18:07:32;20.10;45.80
16404;DHT22;8311;50.158;8.642;2023-02-04T18:10:29;20.20;45.80
16404;DHT22;8311;50.158;8.642;2023-02-04T18:13:29;20.10;45.70
16404;DHT22;8311;50.158;8.642;2023-02-04T18:16:26;20.10;45.80
16404;DHT22;8311;50.158;8.642;2023-02-04T18:19:25;20.10;45.80
16404;DHT22;8311;50.158;8.642;2023-02-04T18:22:20;20.10;45.80
16404;DHT22;8311;50.158;8.642;2023-02-04T18:25:18;20.10;45.80
16404;DHT22;8311;50.158;8.642;2023-02-04T18:28:15;20.20;45.80
16404;DHT22;8311;50.158;8.642;2023-02-04T18:31:27;20.10;45.80
16404;DHT22;8311;50.158;8.642;2023-02-04T18:34:26;20.10;45.80
16404;DHT22;8311;50.158;8.642;2023-02-04T18:37:29;20.10;45.80